Flight Track Log - Related Links

Times and Time Zones

All times are in EST time to prevent confusion due to time zone crossing. See the CES598 flight status page for this flight to view local times or setup timezone preferences in your user account.

Time Position Orientation Groundspeed Altitude Reporting Facility
EST Latitude Longitude Course Direction KTS MPH feet Rate Location/Type
Fri 03:31:21 AM 49.1872 -123.1826 127° Southeast 170 196  Level FlightAware ADS-B (EGNM / LBA)
Fri 03:31:46 AM 49.1911 -123.2197 279° West 163 188 800 1,826 Climbing FlightAware ADS-B (EGNM / LBA)
Fri 03:32:07 AM 49.1941 -123.2470 280° West 181 208 1,400 1,610 Climbing FlightAware ADS-B (EGNM / LBA)
Fri 03:32:27 AM 49.1970 -123.2725 280° West 182 209 1,900 1,535 Climbing FlightAware ADS-B (EGNM / LBA)
Fri 03:32:50 AM 49.2003 -123.3010 280° West 185 213 2,500 1,364 Climbing FlightAware ADS-B (EGNM / LBA)
Fri 03:33:11 AM 49.2043 -123.3300 282° West 193 222 2,900 878 Climbing FlightAware ADS-B (EGNM / LBA)
Fri 03:33:31 AM 49.2077 -123.3584 280° West 216 249 3,100 818 Climbing FlightAware ADS-B (EGNM / LBA)
Fri 03:33:55 AM 49.2122 -123.3962 280° West 242 278 3,500 1,077 Climbing FlightAware ADS-B (EGNM / LBA)
Fri 03:34:10 AM 49.2162 -123.4219 283° West 261 300 3,800 1,833 Climbing FlightAware ADS-B (FAKM / KIM)
Fri 03:34:31 AM 49.2268 -123.4569 295° West 265 305 4,600 2,595 Climbing FlightAware ADS-B (FAKM / KIM)
Fri 03:34:47 AM 49.2377 -123.4833 302° West 260 299 5,400 3,086 Climbing FlightAware ADS-B (FAKM / KIM)
Fri 03:35:06 AM 49.2492 -123.5116 302° West 255 293 6,400 3,000 Climbing FlightAware ADS-B (FAKM / KIM)
Fri 03:35:21 AM 49.2580 -123.5340 301° West 253 291 7,100 2,710 Climbing FlightAware ADS-B (FAKM / KIM)
Fri 03:35:37 AM 49.2671 -123.5569 301° West 252 290 7,800 2,833 Climbing FlightAware ADS-B (FAKM / KIM)
Fri 03:35:57 AM 49.2803 -123.5894 302° West 249 287 8,800 2,743 Climbing FlightAware ADS-B (FAKM / KIM)
Fri 03:36:12 AM 49.2893 -123.6110 302° West 248 285 9,400 2,200 Climbing FlightAware ADS-B (FAKM / KIM)
Fri 03:36:27 AM 49.2987 -123.6337 303° West 254 292 9,900 1,176 Climbing FlightAware ADS-B (FAKM / KIM)
Fri 03:37:03 AM 49.3223 -123.6928 301° West 291 335 10,400 800 Climbing FlightAware ADS-B (FAKM / KIM)
Fri 03:37:42 AM 49.3516 -123.7676 301° West 330 380 10,900 1,459 Climbing FlightAware ADS-B (FAKM / KIM)
Fri 03:38:17 AM 49.3803 -123.8380 302° West 340 391 12,200 2,123 Climbing FlightAware ADS-B (FAKM / KIM)
Fri 03:38:47 AM 49.4064 -123.9021 302° West 348 400 13,200 2,123 Climbing FlightAware ADS-B (FAKM / KIM)
Fri 03:39:22 AM 49.4352 -123.9760 301° West 352 405 14,500 2,215 Climbing FlightAware ADS-B (FAKM / KIM)
Fri 03:39:52 AM 49.4587 -124.0382 300° West 354 407 15,600 2,123 Climbing FlightAware ADS-B (FAKM / KIM)
Fri 03:40:27 AM 49.4882 -124.1149 301° West 359 413 16,800 1,818 Climbing FlightAware ADS-B (FAKM / KIM)
Fri 03:40:58 AM 49.5151 -124.1834 301° West 369 425 17,600 1,333 Climbing FlightAware ADS-B (FAKM / KIM)
Fri 03:41:30 AM 49.5432 -124.2560 301° West 385 443 18,200 1,522 Climbing FlightAware ADS-B (FAKM / KIM)
Fri 03:42:05 AM 49.5762 -124.3414 301° West 388 447 19,300 1,816 Climbing FlightAware ADS-B (FAKM / KIM)
Fri 03:42:46 AM 49.6138 -124.4389 301° West 394 453 20,500 1,579 Climbing FlightAware ADS-B (FAKM / KIM)
Fri 03:43:21 AM 49.6464 -124.5232 301° West 403 464 21,300 1,457 Climbing FlightAware ADS-B (FAKM / KIM)
Fri 03:43:56 AM 49.6802 -124.6111 301° West 408 470 22,200 1,545 Climbing FlightAware ADS-B (FAKM / KIM)
Fri 03:44:27 AM 49.7099 -124.6884 301° West 411 473 23,000 1,286 Climbing FlightAware ADS-B (FAKM / KIM)
Fri 03:45:06 AM 49.7489 -124.7905 301° West 421 484 23,700 1,120 Climbing FlightAware ADS-B (FAKM / KIM)
Fri 03:45:42 AM 49.7837 -124.8817 301° West 426 490 24,400 1,200 Climbing FlightAware ADS-B (FAKM / KIM)
Fri 03:46:16 AM 49.8189 -124.9744 301° West 431 496 25,100 1,108 Climbing FlightAware ADS-B (FAKM / KIM)
Fri 03:46:47 AM 49.8485 -125.0525 300° West 438 504 25,600 960 Climbing FlightAware ADS-B (FAKM / KIM)
Fri 03:47:31 AM 49.8957 -125.1779 300° West 445 512 26,300 1,059 Climbing FlightAware ADS-B (FAKM / KIM)
Fri 03:48:12 AM 49.9359 -125.2849 300° West 447 514 27,100 1,120 Climbing FlightAware ADS-B (FAKM / KIM)
Fri 03:48:46 AM 49.9718 -125.3810 300° West 450 518 27,700 973 Climbing FlightAware ADS-B (FAKM / KIM)
Fri 03:49:26 AM 50.0136 -125.4931 300° West 455 524 28,300 943 Climbing FlightAware ADS-B (FAKM / KIM)
Fri 03:49:56 AM 50.0463 -125.5814 300° West 455 524 28,800 1,183 Climbing FlightAware ADS-B (FAKM / KIM)
Fri 03:50:37 AM 50.0910 -125.6902 303° West 452 520 29,700 1,125 Climbing FlightAware ADS-B (FAKM / KIM)
Fri 03:51:16 AM 50.1386 -125.7937 306° West 454 522 30,300 1,011 Climbing FlightAware ADS-B (FAKM / KIM)
Fri 03:52:12 AM 50.2063 -125.9417 306° West 451 519 31,300 1,113 Climbing FlightAware ADS-B (FAKM / KIM)
Fri 03:52:53 AM 50.2554 -126.0499 305° West 447 514 32,100 991 Climbing FlightAware ADS-B (FAKM / KIM)
Fri 03:54:01 AM 50.3167 -126.2333 305° West 440 506 33,100 891 Climbing Vancouver Center
Fri 03:55:01 AM 50.4000 -126.4000 308° West 440 506 34,000 450 Climbing Vancouver Center
Fri 03:56:01 AM 50.4667 -126.5500 305° West 440 506 34,000  Level Vancouver Center
Fri 03:57:01 AM 50.5333 -126.7167 302° West 440 506 34,000  Level Vancouver Center
Fri 03:58:01 AM 50.6000 -126.8500 308° West 440 506 34,000  Level Vancouver Center
Fri 03:59:01 AM 50.6667 -127.0167 302° West 440 506 34,000  Level Vancouver Center
Fri 04:00:01 AM 50.7500 -127.1833 308° West 440 506 34,000  Level Vancouver Center
Fri 04:01:01 AM 50.8000 -127.3333 298° West 440 506 34,000  Level Vancouver Center
Fri 04:02:01 AM 50.8833 -127.5000 308° West 450 518 34,000  Level Vancouver Center
Fri 04:03:01 AM 50.9500 -127.6667 302° West 450 518 34,000  Level Vancouver Center
Fri 04:04:01 AM 51.0000 -127.8333 296° West 440 506 34,000  Level Vancouver Center
Fri 04:05:01 AM 51.0833 -127.9667 315° West 440 506 34,000  Level Vancouver Center
Fri 04:06:01 AM 51.1500 -128.1667 298° West 440 506 34,000  Level Vancouver Center
Fri 04:07:01 AM 51.2167 -128.3333 303° West 440 506 34,000  Level Vancouver Center
Fri 04:08:01 AM 51.2833 -128.4667 309° West 440 506 34,000  Level Vancouver Center
Fri 04:09:01 AM 51.3500 -128.6333 303° West 440 506 34,000  Level Vancouver Center
Fri 04:10:01 AM 51.4167 -128.8000 303° West 430 495 34,000  Level Vancouver Center
Fri 04:11:01 AM 51.4833 -128.9500 306° West 440 506 34,000  Level Vancouver Center
Fri 04:12:01 AM 51.5500 -129.1500 298° West 440 506 34,000  Level Vancouver Center
Fri 04:13:01 AM 51.6167 -129.2833 309° West 440 506 34,000  Level Vancouver Center
Fri 04:14:01 AM 51.7000 -129.4500 309° West 430 495 34,000  Level Vancouver Center
Fri 04:15:01 AM 51.7500 -129.6333 294° West 430 495 34,000  Level Vancouver Center
Fri 04:16:01 AM 51.8167 -129.7667 309° West 430 495 34,000  Level Vancouver Center
Fri 04:17:01 AM 51.8833 -129.9500 301° West 420 483 34,000  Level Vancouver Center
Fri 04:18:01 AM 51.9500 -130.1167 303° West 420 483 34,000  Level Vancouver Center
Fri 04:19:01 AM 52.0000 -130.2500 301° West 420 483 34,000  Level Vancouver Center
Fri 04:20:01 AM 52.0667 -130.4333 301° West 420 483 34,000  Level Vancouver Center
Fri 04:21:01 AM 52.1167 -130.5667 301° West 420 483 34,000  Level Vancouver Center
Fri 04:22:01 AM 52.2000 -130.7500 307° West 420 483 34,000  Level Vancouver Center
Fri 04:23:01 AM 52.2500 -130.9000 299° West 420 483 34,000  Level Vancouver Center
Fri 04:24:01 AM 52.3000 -131.0667 296° West 420 483 34,000  Level Vancouver Center
Fri 04:25:01 AM 52.3667 -131.2500 301° West 420 483 34,000  Level Vancouver Center
Fri 04:26:01 AM 52.4167 -131.3833 302° West 420 483 34,000  Level Vancouver Center
Fri 04:27:01 AM 52.4833 -131.5667 301° West 420 483 34,000  Level Vancouver Center
Fri 04:28:01 AM 52.5333 -131.7167 299° West 420 483 34,000  Level Vancouver Center
Fri 04:29:01 AM 52.6000 -131.8833 303° West 420 483 34,000  Level Vancouver Center
Fri 04:30:01 AM 52.6667 -132.0333 306° West 420 483 34,000  Level Vancouver Center
Fri 04:31:01 AM 52.7167 -132.2167 294° West 420 483 34,000  Level Vancouver Center
Fri 04:32:01 AM 52.7667 -132.4000 294° West 420 483 34,000  Level Vancouver Center
Fri 04:33:01 AM 52.8333 -132.5500 306° West 420 483 34,000  Level Vancouver Center
Fri 04:34:01 AM 52.9000 -132.7167 304° West 420 483 34,000  Level Vancouver Center
Fri 04:35:01 AM 52.9500 -132.8667 299° West 420 483 34,000  Level Vancouver Center
Fri 04:36:01 AM 53.0167 -133.0500 301° West 420 483 34,000  Level Vancouver Center
Fri 04:37:01 AM 53.0833 -133.2333 301° West 430 495 34,000  Level Vancouver Center
Fri 04:38:01 AM 53.1333 -133.4167 295° West 430 495 34,000  Level Vancouver Center
Fri 04:39:01 AM 53.1833 -133.5667 299° West 430 495 34,000  Level Vancouver Center
Fri 04:40:01 AM 53.2333 -133.7500 295° West 430 495 34,000  Level Vancouver Center
Fri 04:41:01 AM 53.3000 -133.9333 301° West 430 495 34,000  Level Vancouver Center
Fri 04:42:01 AM 53.3667 -134.0833 307° West 430 495 34,000  Level Vancouver Center
Fri 04:43:01 AM 53.4167 -134.2667 295° West 430 495 34,000  Level Vancouver Center
Fri 04:44:01 AM 53.4833 -134.4500 301° West 430 495 34,000  Level Vancouver Center
Fri 04:45:01 AM 53.5333 -134.6333 295° West 430 495 34,000  Level Vancouver Center
Fri 04:46:01 AM 53.5833 -134.7833 299° West 430 495 34,000  Level Vancouver Center
Fri 04:47:01 AM 53.6500 -134.9833 299° West 430 495 34,000  Level Vancouver Center
Fri 04:48:01 AM 53.7000 -135.1667 295° West 440 506 34,000  Level Vancouver Center
Fri 04:49:01 AM 53.7500 -135.3500 295° West 440 506 34,000  Level Vancouver Center
Fri 04:50:01 AM 53.8167 -135.5333 302° West 440 506 34,000  Level Vancouver Center
Fri 04:51:03 AM 53.8833 -135.6500 314° West 440 506 34,000  Level Anchorage Center
Fri 04:53:01 AM 53.9833 -136.0667 292° West 440 506 34,000  Level Vancouver Center
Fri 04:54:01 AM 54.0500 -136.2667 300° West 450 518 34,000  Level Vancouver Center
Fri 04:55:01 AM 54.1167 -136.4500 302° West 450 518 34,000  Level Vancouver Center
Fri 04:56:01 AM 54.1667 -136.6167 297° West 450 518 34,000  Level Vancouver Center
Fri 04:57:01 AM 54.2333 -136.8000 302° West 450 518 34,000  Level Vancouver Center
Fri 04:58:05 AM 54.2833 -136.9333 303° West 450 518 34,000  Level Anchorage Center
Fri 04:59:05 AM 54.3500 -137.1167 302° West 460 529 34,000  Level Anchorage Center
Fri 05:01:06 AM 54.4667 -137.5000 298° West 450 518 34,000  Level Anchorage Center
Fri 05:02:07 AM 54.5167 -137.7000 293° West 450 518 34,000  Level Anchorage Center
Fri 05:03:01 AM 54.5667 -137.9667 288° West 460 529 34,000  Level Vancouver Center
Fri 05:04:01 AM 54.6333 -138.1333 305° West 450 518 34,000  Level Vancouver Center
Fri 05:05:01 AM 54.6833 -138.3500 292° West 440 506 34,000  Level Vancouver Center
Fri 05:06:01 AM 54.7500 -138.5167 305° West 460 529 34,000  Level Vancouver Center
Fri 05:07:01 AM 54.8000 -138.7500 290° West 460 529 34,000  Level Vancouver Center
Fri 05:08:01 AM 54.8667 -138.9167 305° West 460 529 34,000  Level Vancouver Center
Fri 05:09:01 AM 54.9167 -139.1167 294° West 460 529 34,000  Level Vancouver Center
Fri 05:10:01 AM 54.9667 -139.3333 292° West 450 518 34,000  Level Vancouver Center
Fri 05:11:01 AM 55.0333 -139.5167 302° West 460 529 34,000  Level Vancouver Center
Fri 05:12:01 AM 55.0667 -139.7000 288° West 470 541 34,000  Level Vancouver Center
Fri 05:13:11 AM 55.1500 -139.8500 314° West 470 541 34,000  Level Anchorage Center
Fri 05:14:11 AM 55.2000 -140.0500 294° West 450 518 34,000  Level Anchorage Center
Fri 05:15:11 AM 55.2500 -140.2500 294° West 460 529 34,000  Level Anchorage Center
Fri 05:16:11 AM 55.3167 -140.4667 298° West 460 529 34,000  Level Anchorage Center
Fri 05:17:12 AM 55.3667 -140.6667 294° West 480 552 34,000  Level Anchorage Center
Fri 05:18:12 AM 55.4333 -140.9000 297° West 450 518 34,000  Level Anchorage Center
Fri 05:19:12 AM 55.4667 -141.0667 289° West 440 506 34,000  Level Anchorage Center
Fri 05:20:13 AM 55.5333 -141.3167 295° West 470 541 34,000  Level Anchorage Center
Fri 05:21:13 AM 55.5833 -141.4833 298° West 460 529 34,000  Level Anchorage Center
Fri 05:22:13 AM 55.6500 -141.7333 295° West 470 541 34,000  Level Anchorage Center
Fri 05:23:14 AM 55.7000 -141.9333 294° West 450 518 34,000  Level Anchorage Center
Fri 05:24:14 AM 55.7500 -142.1500 292° West 470 541 34,000  Level Anchorage Center
Fri 05:25:14 AM 55.8000 -142.3333 296° West 480 552 34,000  Level Anchorage Center
Fri 05:29:06 AM 56.0000 -143.1833 293° West 440 506 34,000  Level Anchorage Center
Fri 05:30:06 AM 56.0500 -143.4000 293° West 460 529 34,000  Level Anchorage Center
Fri 05:31:06 AM 56.1000 -143.6167 293° West 470 541 34,000  Level Anchorage Center
Fri 05:32:07 AM 56.1500 -143.8333 293° West 470 541 34,000  Level Anchorage Center
Fri 05:33:07 AM 56.2000 -144.0667 291° West 480 552 34,000  Level Anchorage Center
Fri 05:34:00 AM 56.1839 -144.0025 293° West  Level FlightAware Approximate
Fri 05:34:07 AM 56.2500 -144.2833 293° West 470 541 34,000  Level Anchorage Center
Fri 05:35:07 AM 56.3000 -144.5000 293° West 480 552 34,000  Level Anchorage Center
Fri 05:36:08 AM 56.3500 -144.7333 291° West 470 541 34,000  Level Anchorage Center
Fri 05:37:08 AM 56.4000 -144.9500 293° West 470 541 34,000  Level Anchorage Center
Fri 05:38:08 AM 56.4500 -145.1667 293° West 470 541 34,000  Level Anchorage Center
Fri 05:39:09 AM 56.5000 -145.4000 291° West 470 541 34,000  Level Anchorage Center
Fri 05:40:09 AM 56.5500 -145.6333 291° West 480 552 34,000  Level Anchorage Center
Fri 05:41:09 AM 56.5833 -145.8500 286° West 480 552 34,000 50 Level Anchorage Center
Fri 05:42:10 AM 56.6333 -146.0833 291° West 470 541 34,100 564 Climbing Anchorage Center
Fri 05:44:10 AM 56.7333 -146.5333 292° West 470 541 35,700 630 Climbing Anchorage Center
Fri 05:45:11 AM 56.7667 -146.7500 286° West 470 541 36,000 149 Climbing Anchorage Center
Fri 05:46:11 AM 56.8167 -146.9833 291° West 470 541 36,000  Level Anchorage Center
Fri 05:47:11 AM 56.8667 -147.2167 291° West 470 541 36,000  Level Anchorage Center
Fri 05:48:12 AM 56.9167 -147.4333 293° West 470 541 36,000  Level Anchorage Center
Fri 05:49:12 AM 56.9500 -147.6667 285° West 460 529 36,000  Level Anchorage Center
Fri 05:50:13 AM 57.0000 -147.9000 292° West 470 541 36,000  Level Anchorage Center
Fri 05:51:13 AM 57.0333 -148.1167 286° West 470 541 36,000  Level Anchorage Center
Fri 05:52:13 AM 57.0833 -148.3500 292° West 460 529 36,000  Level Anchorage Center
Fri 05:53:14 AM 57.1167 -148.5833 285° West 470 541 36,000  Level Anchorage Center
Fri 05:54:14 AM 57.1667 -148.8000 293° West 470 541 36,000  Level Anchorage Center
Fri 05:55:14 AM 57.2000 -149.0333 285° West 470 541 36,000  Level Anchorage Center
Fri 05:56:15 AM 57.2500 -149.2667 292° West 460 529 36,000  Level Anchorage Center
Fri 05:57:15 AM 57.2833 -149.5000 285° West 470 541 36,000  Level Anchorage Center
Fri 05:58:15 AM 57.3333 -149.7333 292° West 470 541 36,000  Level Anchorage Center
Fri 05:59:16 AM 57.3667 -149.9667 285° West 470 541 36,000  Level Anchorage Center
Fri 06:00:16 AM 57.4000 -150.2000 285° West 460 529 36,000  Level Anchorage Center
Fri 06:01:16 AM 57.4500 -150.4333 292° West 470 541 36,000  Level Anchorage Center
Fri 06:02:17 AM 57.4833 -150.6833 284° West 480 552 36,000  Level Anchorage Center
Fri 06:03:17 AM 57.5167 -150.9167 285° West 470 541 36,000  Level Anchorage Center
Fri 06:04:18 AM 57.5500 -151.1667 284° West 460 529 36,000  Level Anchorage Center
Fri 06:05:18 AM 57.5833 -151.4000 285° West 470 541 36,000  Level Anchorage Center
Fri 06:06:18 AM 57.6167 -151.6333 285° West 470 541 36,000  Level Anchorage Center
Fri 06:07:19 AM 57.6500 -151.8833 284° West 480 552 36,000  Level Anchorage Center
Fri 06:08:19 AM 57.6833 -152.1333 284° West 480 552 36,000  Level Anchorage Center
Fri 06:09:19 AM 57.7167 -152.3667 285° West 480 552 36,000  Level Anchorage Center
Fri 06:10:20 AM 57.7500 -152.6167 284° West 490 564 36,000  Level Anchorage Center
Fri 06:11:20 AM 57.7833 -152.8667 284° West 480 552 36,000  Level Anchorage Center
Fri 06:12:20 AM 57.8167 -153.1167 284° West 480 552 36,000  Level Anchorage Center
Fri 06:13:21 AM 57.8500 -153.3500 285° West 480 552 36,000  Level Anchorage Center
Fri 06:14:21 AM 57.8833 -153.6000 284° West 480 552 36,000  Level Anchorage Center
Fri 06:15:21 AM 57.9167 -153.8500 284° West 480 552 36,000  Level Anchorage Center
Fri 06:16:22 AM 57.9500 -154.1000 284° West 480 552 36,000  Level Anchorage Center
Fri 06:17:22 AM 57.9833 -154.3500 284° West 480 552 36,000  Level Anchorage Center
Fri 06:18:22 AM 58.0000 -154.6000 277° West 470 541 36,000  Level Anchorage Center
Fri 06:19:23 AM 58.0333 -154.8500 284° West 490 564 36,000  Level Anchorage Center
Fri 06:21:24 AM 58.1000 -155.3500 284° West 490 564 36,000  Level Anchorage Center
Fri 06:22:24 AM 58.1167 -155.6000 277° West 490 564 36,000  Level Anchorage Center
Fri 06:23:24 AM 58.1500 -155.8667 283° West 490 564 36,000  Level Anchorage Center
Fri 06:24:25 AM 58.1833 -156.1167 284° West 490 564 36,000  Level Anchorage Center
Fri 06:25:25 AM 58.2000 -156.3833 277° West 490 564 36,000  Level Anchorage Center
Fri 06:26:25 AM 58.2333 -156.6333 284° West 490 564 36,000  Level Anchorage Center
Fri 06:27:26 AM 58.2500 -156.9000 277° West 490 564 36,000  Level Anchorage Center
Fri 06:28:26 AM 58.2833 -157.1500 284° West 490 564 36,000  Level Anchorage Center
Fri 06:29:26 AM 58.3000 -157.4167 277° West 490 564 36,000  Level Anchorage Center
Fri 06:30:27 AM 58.3333 -157.6833 284° West 500 575 36,000  Level Anchorage Center
Fri 06:31:27 AM 58.3500 -157.9500 277° West 490 564 36,000  Level Anchorage Center
Fri 06:32:27 AM 58.3833 -158.2000 284° West 500 575 36,000  Level Anchorage Center
Fri 06:34:28 AM 58.4167 -158.7333 277° West 500 575 36,000  Level Anchorage Center
Fri 06:36:29 AM 58.4667 -159.2833 280° West 510 587 36,000  Level Anchorage Center
Fri 06:37:29 AM 58.4833 -159.5667 277° West 500 575 36,000  Level Anchorage Center
Fri 06:38:29 AM 58.5000 -159.8333 277° West 510 587 36,000  Level Anchorage Center
Fri 06:39:30 AM 58.5333 -160.1000 284° West 510 587 36,000  Level Anchorage Center
Fri 06:40:30 AM 58.5500 -160.3833 277° West 510 587 36,000  Level Anchorage Center
Fri 06:42:31 AM 58.5833 -160.9167 277° West 520 598 36,000  Level Anchorage Center
Fri 06:44:32 AM 58.6167 -161.4667 277° West 510 587 36,000  Level Anchorage Center
Fri 06:45:32 AM 58.6333 -161.7333 277° West 500 575 36,000  Level Anchorage Center
Fri 06:46:32 AM 58.6500 -161.9833 277° West 500 575 36,000  Level Anchorage Center
Fri 06:47:32 AM 58.6667 -162.2667 277° West 510 587 36,000  Level Anchorage Center
Fri 06:48:33 AM 58.6667 -162.5333 270° West 490 564 36,000  Level Anchorage Center
Fri 06:49:33 AM 58.6833 -162.8000 277° West 500 575 36,000  Level Anchorage Center
Fri 06:50:33 AM 58.7000 -163.0667 277° West 500 575 36,000  Level Anchorage Center
Fri 06:51:34 AM 58.7000 -163.3333 270° West 510 587 36,000  Level Anchorage Center
Fri 06:52:34 AM 58.7167 -163.6167 277° West 510 587 36,000  Level Anchorage Center
Fri 06:53:34 AM 58.7333 -163.9333 276° West 500 575 36,000  Level Anchorage Center
Fri 06:54:35 AM 58.7333 -164.2000 270° West 500 575 36,000  Level Anchorage Center
Fri 06:55:35 AM 58.7500 -164.4833 277° West 500 575 36,000  Level Anchorage Center
Fri 06:56:45 AM 58.7500 -164.7500 270° West 510 587 36,000  Level Anchorage Center
Fri 06:57:45 AM 58.7500 -165.0167 270° West 510 587 36,000  Level Anchorage Center
Fri 06:58:45 AM 58.7667 -165.3000 277° West 520 598 36,000  Level Anchorage Center
Fri 06:59:45 AM 58.7667 -165.5667 270° West 490 564 36,000  Level Anchorage Center
Fri 07:00:45 AM 58.7833 -165.8333 277° West 500 575 36,000  Level Anchorage Center
Fri 07:01:45 AM 58.7833 -166.1000 270° West 490 564 36,000  Level Anchorage Center
Fri 07:02:46 AM 58.7833 -166.3667 270° West 490 564 36,000  Level Anchorage Center
Fri 07:03:45 AM 58.7833 -166.6500 270° West 500 575 36,000  Level Anchorage Center
Fri 07:04:46 AM 58.8000 -166.9500 276° West 490 564 36,000  Level Anchorage Center
Fri 07:05:46 AM 58.7833 -167.2167 263° West 490 564 36,000  Level Anchorage Center
Fri 07:06:46 AM 58.8000 -167.4833 277° West 500 575 36,000  Level Anchorage Center
Fri 07:07:46 AM 58.8000 -167.7667 270° West 500 575 36,000  Level Anchorage Center
Fri 07:08:46 AM 58.8000 -168.0333 270° West 500 575 36,000  Level Anchorage Center
Fri 07:09:46 AM 58.8000 -168.3000 270° West 500 575 36,000  Level Anchorage Center
Fri 07:10:46 AM 58.8000 -168.5667 270° West 490 564 36,000  Level Anchorage Center
Fri 07:11:46 AM 58.8000 -168.8333 270° West 500 575 36,000  Level Anchorage Center
Fri 07:12:46 AM 58.8000 -169.1000 270° West 490 564 36,000  Level Anchorage Center
Fri 07:13:46 AM 58.7833 -169.3667 263° West 490 564 36,000  Level Anchorage Center
Fri 07:14:46 AM 58.7833 -169.6333 270° West 490 564 36,000  Level Anchorage Center
Fri 07:15:46 AM 58.7833 -169.9000 270° West 500 575 36,000  Level Anchorage Center
Fri 07:16:47 AM 58.7833 -170.1667 270° West 500 575 36,000  Level Anchorage Center
Fri 07:17:47 AM 58.7833 -170.4333 270° West 490 564 36,000  Level Anchorage Center
Fri 07:18:47 AM 58.7667 -170.7000 263° West 500 575 36,000  Level Anchorage Center
Fri 07:19:46 AM 58.7667 -170.9667 270° West 490 564 36,000  Level Anchorage Center
Fri 07:20:47 AM 58.7667 -171.2333 270° West 490 564 36,000  Level Anchorage Center
Fri 07:21:47 AM 58.7500 -171.5000 263° West 490 564 36,000  Level Anchorage Center
Fri 07:22:47 AM 58.7333 -171.7667 263° West 490 564 36,000  Level Anchorage Center
Fri 07:23:47 AM 58.7167 -172.0333 263° West 490 564 36,000  Level Anchorage Center
Fri 07:24:47 AM 58.7167 -172.2833 270° West 490 564 36,000  Level Anchorage Center
Fri 07:25:47 AM 58.7000 -172.5500 263° West 490 564 36,000  Level Anchorage Center
Fri 07:26:47 AM 58.6833 -172.8167 263° West 480 552 36,000  Level Anchorage Center
Fri 07:27:47 AM 58.6667 -173.0167 261° West 490 564 36,000  Level Anchorage Center
Fri 07:28:47 AM 58.6500 -173.3500 265° West 500 575 36,000  Level Anchorage Center
Fri 07:29:47 AM 58.6333 -173.6000 263° West 490 564 36,000  Level Anchorage Center
Fri 07:30:48 AM 58.6167 -173.8667 263° West 500 575 36,000  Level Anchorage Center
Fri 07:31:48 AM 58.6000 -174.0833 262° West 490 564 36,000  Level Anchorage Center
Fri 07:32:47 AM 58.5833 -174.3333 263° West 490 564 36,000  Level Anchorage Center
Fri 07:33:47 AM 58.5667 -174.6000 263° West 490 564 36,000  Level Anchorage Center
Fri 07:34:47 AM 58.5500 -174.8667 263° West 480 552 36,000  Level Anchorage Center
Fri 07:35:48 AM 58.5333 -175.1167 263° West 490 564 36,000  Level Anchorage Center
Fri 07:36:48 AM 58.5167 -175.3833 263° West 490 564 36,000  Level Anchorage Center
Fri 07:37:48 AM 58.5000 -175.6333 263° West 470 541 36,000  Level Anchorage Center
Fri 07:38:48 AM 58.4667 -175.8833 256° West 480 552 36,000  Level Anchorage Center
Fri 07:39:48 AM 58.4500 -176.1333 263° West 480 552 36,000  Level Anchorage Center
Fri 07:40:48 AM 58.4333 -176.3833 263° West 490 564 36,000  Level Anchorage Center
Fri 07:41:48 AM 58.4167 -176.6500 263° West 480 552 36,000  Level Anchorage Center
Fri 07:42:48 AM 58.3833 -176.9000 256° West 480 552 36,000  Level Anchorage Center
Fri 07:43:48 AM 58.3500 -177.1500 256° West 470 541 36,000  Level Anchorage Center
Fri 08:10:23 AM 56.8333 177.3500 240° Southwest 476 548 36,000  Level Anchorage Center
Fri 08:38:04 AM 54.9333 171.9833 241° Southwest 479 551 36,000  Level Anchorage Center
Fri 08:53:01 AM 53.7500 169.2333 241° Southwest 408 470 36,000  Level Anchorage Center
Fri 09:45:17 AM 50.2000 160.3833 234° Southwest 498 573 36,000  Level Anchorage Center
Fri 09:46:00 AM 50.0151 159.9652 233° Southwest 408 470 36,000  Level FlightAware Transoceanic
Fri 09:47:00 AM 49.9408 159.8107 233° Southwest 408 470 36,000  Level FlightAware Transoceanic
Fri 09:48:00 AM 49.8663 159.6567 233° Southwest 408 470 36,000  Level FlightAware Transoceanic
Fri 09:49:00 AM 49.7916 159.5031 233° Southwest 408 470 36,000  Level FlightAware Transoceanic
Fri 09:50:00 AM 49.7167 159.3500 233° Southwest 408 470 36,000  Level FlightAware Transoceanic
Fri 09:51:00 AM 49.4946 158.8992 233° Southwest 498 573 36,000  Level FlightAware Transoceanic
Fri 09:52:00 AM 49.4202 158.7499 232° Southwest 498 573 36,000  Level FlightAware Transoceanic
Fri 09:53:00 AM 49.3456 158.6010 232° Southwest 498 573 36,000  Level FlightAware Transoceanic
Fri 09:54:00 AM 49.2709 158.4526 232° Southwest 498 573 36,000  Level FlightAware Transoceanic
Fri 09:55:00 AM 49.1959 158.3046 232° Southwest 498 573 36,000  Level FlightAware Transoceanic
Fri 09:56:00 AM 49.1207 158.1571 232° Southwest 498 573 36,000  Level FlightAware Transoceanic
Fri 09:57:00 AM 49.0454 158.0100 232° Southwest 498 573 36,000  Level FlightAware Transoceanic
Fri 09:58:00 AM 48.9698 157.8633 232° Southwest 498 573 36,000  Level FlightAware Transoceanic
Fri 09:59:00 AM 48.8941 157.7171 232° Southwest 498 573 36,000  Level FlightAware Transoceanic
Fri 10:00:00 AM 48.8182 157.5714 232° Southwest 498 573 36,000  Level FlightAware Transoceanic
Fri 10:01:00 AM 48.7421 157.4261 231° Southwest 498 573 36,000  Level FlightAware Transoceanic
Fri 10:02:00 AM 48.6659 157.2812 231° Southwest 498 573 36,000  Level FlightAware Transoceanic
Fri 10:03:00 AM 48.5894 157.1367 231° Southwest 498 573 36,000  Level FlightAware Transoceanic
Fri 10:04:00 AM 48.5128 156.9927 231° Southwest 498 573 36,000  Level FlightAware Transoceanic
Fri 10:05:00 AM 48.4360 156.8492 231° Southwest 498 573 36,000  Level FlightAware Transoceanic
Fri 10:06:00 AM 48.3590 156.7060 231° Southwest 498 573 36,000  Level FlightAware Transoceanic
Fri 10:07:00 AM 48.2818 156.5633 231° Southwest 498 573 36,000  Level FlightAware Transoceanic
Fri 10:08:00 AM 48.2045 156.4211 231° Southwest 498 573 36,000  Level FlightAware Transoceanic
Fri 10:09:00 AM 48.1270 156.2792 231° Southwest 498 573 36,000  Level FlightAware Transoceanic
Fri 10:10:00 AM 48.0493 156.1378 231° Southwest 498 573 36,000  Level FlightAware Transoceanic
Fri 10:11:00 AM 47.9714 155.9968 230° Southwest 498 573 36,000  Level FlightAware Transoceanic
Fri 10:12:00 AM 47.8934 155.8563 230° Southwest 498 573 36,000  Level FlightAware Transoceanic
Fri 10:13:00 AM 47.8152 155.7162 230° Southwest 498 573 36,000  Level FlightAware Transoceanic
Fri 10:14:00 AM 47.7368 155.5764 230° Southwest 498 573 36,000  Level FlightAware Transoceanic
Fri 10:15:00 AM 47.6583 155.4371 230° Southwest 498 573 36,000  Level FlightAware Transoceanic
Fri 10:16:00 AM 47.5796 155.2983 230° Southwest 498 573 36,000  Level FlightAware Transoceanic
Fri 10:17:00 AM 47.5007 155.1598 230° Southwest 498 573 36,000  Level FlightAware Transoceanic
Fri 10:18:00 AM 47.4216 155.0218 230° Southwest 498 573 36,000  Level FlightAware Transoceanic
Fri 10:19:00 AM 47.3424 154.8841 230° Southwest 498 573 36,000  Level FlightAware Transoceanic
Fri 10:20:00 AM 47.2631 154.7469 229° Southwest 498 573 36,000  Level FlightAware Transoceanic
Fri 10:21:00 AM 47.1835 154.6101 229° Southwest 498 573 36,000  Level FlightAware Transoceanic
Fri 10:22:00 AM 47.1038 154.4737 229° Southwest 498 573 36,000  Level FlightAware Transoceanic
Fri 10:23:00 AM 47.0240 154.3377 229° Southwest 498 573 36,000  Level FlightAware Transoceanic
Fri 10:24:00 AM 46.9439 154.2022 229° Southwest 498 573 36,000  Level FlightAware Transoceanic
Fri 10:25:00 AM 46.8638 154.0670 229° Southwest 498 573 36,000  Level FlightAware Transoceanic
Fri 10:26:00 AM 46.7834 153.9322 229° Southwest 498 573 36,000  Level FlightAware Transoceanic
Fri 10:27:00 AM 46.7029 153.7979 229° Southwest 498 573 36,000  Level FlightAware Transoceanic
Fri 10:28:00 AM 46.6223 153.6639 229° Southwest 498 573 36,000  Level FlightAware Transoceanic
Fri 10:29:00 AM 46.5415 153.5303 229° Southwest 498 573 36,000  Level FlightAware Transoceanic
Fri 10:30:00 AM 46.4605 153.3971 228° Southwest 498 573 36,000  Level FlightAware Transoceanic
Fri 10:31:00 AM 46.3794 153.2644 228° Southwest 498 573 36,000  Level FlightAware Transoceanic
Fri 10:32:00 AM 46.2981 153.1320 228° Southwest 498 573 36,000  Level FlightAware Transoceanic
Fri 10:33:00 AM 46.2219 153.0084 228° Southwest  Level FlightAware Approximate
Fri 10:34:00 AM 46.1456 152.8852 228° Southwest  Level FlightAware Approximate
Fri 10:35:00 AM 46.1504 152.8942 228° Southwest  Level FlightAware Approximate
Fri 10:36:00 AM 46.0734 152.7719 228° Southwest  Level FlightAware Approximate
Fri 10:37:00 AM 45.9964 152.6499 228° Southwest  Level FlightAware Approximate
Fri 10:38:00 AM 45.9192 152.5284 228° Southwest  Level FlightAware Approximate
Fri 10:39:00 AM 45.8419 152.4071 228° Southwest  Level FlightAware Approximate
Fri 10:40:00 AM 45.7644 152.2862 227° Southwest  Level FlightAware Approximate
Fri 10:41:00 AM 45.6868 152.1656 227° Southwest  Level FlightAware Approximate
Fri 10:42:00 AM 45.6091 152.0453 227° Southwest  Level FlightAware Approximate
Fri 10:43:00 AM 45.5313 151.9254 227° Southwest  Level FlightAware Approximate
Fri 10:44:00 AM 45.4533 151.8058 227° Southwest  Level FlightAware Approximate
Fri 10:45:00 AM 45.3753 151.6866 227° Southwest  Level FlightAware Approximate
Fri 10:46:00 AM 45.2971 151.5676 227° Southwest  Level FlightAware Approximate
Fri 10:47:00 AM 45.2187 151.4490 227° Southwest  Level FlightAware Approximate
Fri 10:48:00 AM 45.1403 151.3308 227° Southwest  Level FlightAware Approximate
Fri 10:49:00 AM 45.0617 151.2128 227° Southwest  Level FlightAware Approximate
Fri 10:50:00 AM 44.9830 151.0952 227° Southwest  Level FlightAware Approximate
Fri 10:51:00 AM 44.9042 150.9779 227° Southwest  Level FlightAware Approximate
Fri 10:52:00 AM 44.8253 150.8609 226° Southwest  Level FlightAware Approximate
Fri 10:53:00 AM 44.7462 150.7442 226° Southwest  Level FlightAware Approximate
Fri 10:54:00 AM 44.6671 150.6279 226° Southwest  Level FlightAware Approximate
Fri 10:55:00 AM 44.5878 150.5119 226° Southwest  Level FlightAware Approximate
Fri 10:56:00 AM 44.5084 150.3962 226° Southwest  Level FlightAware Approximate
Fri 10:57:00 AM 44.4288 150.2808 226° Southwest  Level FlightAware Approximate
Fri 10:58:00 AM 44.3492 150.1657 226° Southwest  Level FlightAware Approximate
Fri 10:59:00 AM 44.2695 150.0509 226° Southwest  Level FlightAware Approximate
Fri 11:00:00 AM 44.1896 149.9365 226° Southwest  Level FlightAware Approximate
Fri 11:01:00 AM 44.1096 149.8224 226° Southwest  Level FlightAware Approximate
Fri 11:02:00 AM 44.0295 149.7085 226° Southwest  Level FlightAware Approximate
Fri 11:03:00 AM 43.9493 149.5950 226° Southwest  Level FlightAware Approximate
Fri 11:04:00 AM 43.8690 149.4818 225° Southwest  Level FlightAware Approximate
Fri 11:05:00 AM 43.7886 149.3689 225° Southwest  Level FlightAware Approximate
Fri 11:06:00 AM 43.7080 149.2563 225° Southwest  Level FlightAware Approximate
Fri 11:07:00 AM 43.6274 149.1439 225° Southwest  Level FlightAware Approximate
Fri 11:08:00 AM 43.5466 149.0319 225° Southwest  Level FlightAware Approximate
Fri 11:09:00 AM 43.4657 148.9202 225° Southwest  Level FlightAware Approximate
Fri 11:10:00 AM 43.3848 148.8088 225° Southwest  Level FlightAware Approximate
Fri 11:11:00 AM 43.3037 148.6977 225° Southwest  Level FlightAware Approximate
Fri 11:12:00 AM 43.2225 148.5869 225° Southwest  Level FlightAware Approximate
Fri 11:13:00 AM 43.1412 148.4764 225° Southwest  Level FlightAware Approximate
Fri 11:14:00 AM 43.0598 148.3661 225° Southwest  Level FlightAware Approximate
Fri 11:15:00 AM 42.9783 148.2562 225° Southwest  Level FlightAware Approximate
Fri 11:16:00 AM 42.8966 148.1465 225° Southwest  Level FlightAware Approximate
Fri 11:17:00 AM 42.8149 148.0372 224° Southwest  Level FlightAware Approximate
Fri 11:18:00 AM 42.7331 147.9281 224° Southwest  Level FlightAware Approximate
Fri 11:19:00 AM 42.6512 147.8194 224° Southwest  Level FlightAware Approximate
Fri 11:20:00 AM 42.5691 147.7109 224° Southwest  Level FlightAware Approximate
Fri 11:21:00 AM 42.4870 147.6026 224° Southwest  Level FlightAware Approximate
Fri 11:22:00 AM 42.4048 147.4947 224° Southwest  Level FlightAware Approximate
Fri 11:23:00 AM 42.3230 147.3862 225° Southwest  Level FlightAware Approximate
Fri 11:24:00 AM 42.2414 147.2777 225° Southwest  Level FlightAware Approximate
Fri 11:25:00 AM 42.1597 147.1695 224° Southwest  Level FlightAware Approximate
Fri 11:26:00 AM 42.0779 147.0616 224° Southwest  Level FlightAware Approximate
Fri 11:27:00 AM 41.9960 146.9539 224° Southwest  Level FlightAware Approximate
Fri 11:28:00 AM 41.9140 146.8465 224° Southwest  Level FlightAware Approximate
Fri 11:29:00 AM 41.8312 146.7403 224° Southwest  Level FlightAware Approximate
Fri 11:30:00 AM 41.7484 146.6343 224° Southwest  Level FlightAware Approximate
Fri 11:31:00 AM 41.6654 146.5286 224° Southwest  Level FlightAware Approximate
Fri 11:32:00 AM 41.5824 146.4232 224° Southwest  Level FlightAware Approximate
Fri 11:33:00 AM 41.4993 146.3181 223° Southwest  Level FlightAware Approximate
Fri 11:34:00 AM 41.4160 146.2132 223° Southwest  Level FlightAware Approximate
Fri 11:35:00 AM 41.3327 146.1086 223° Southwest  Level FlightAware Approximate
Fri 11:36:00 AM 41.2493 146.0043 223° Southwest  Level FlightAware Approximate
Fri 11:37:00 AM 41.1658 145.9002 223° Southwest  Level FlightAware Approximate
Fri 11:38:00 AM 41.0822 145.7964 223° Southwest  Level FlightAware Approximate
Fri 11:39:00 AM 40.9985 145.6928 223° Southwest  Level FlightAware Approximate
Fri 11:40:00 AM 40.9147 145.5896 223° Southwest  Level FlightAware Approximate
Fri 11:41:00 AM 40.8308 145.4865 223° Southwest  Level FlightAware Approximate
Fri 11:42:00 AM 40.7468 145.3838 223° Southwest  Level FlightAware Approximate
Fri 11:43:00 AM 40.6628 145.2813 223° Southwest  Level FlightAware Approximate
Fri 11:44:00 AM 40.5786 145.1790 223° Southwest  Level FlightAware Approximate
Fri 11:45:00 AM 40.4944 145.0771 223° Southwest  Level FlightAware Approximate
Fri 11:46:00 AM 40.4119 144.9733 238° Southwest  Level FlightAware Approximate
Fri 11:47:00 AM 40.3510 144.8460 238° Southwest  Level FlightAware Approximate
Fri 11:48:00 AM 40.2901 144.7189 238° Southwest  Level FlightAware Approximate
Fri 11:49:00 AM 40.2289 144.5921 238° Southwest  Level FlightAware Approximate
Fri 11:50:00 AM 40.1677 144.4655 238° Southwest  Level FlightAware Approximate
Fri 11:51:00 AM 40.1063 144.3391 238° Southwest  Level FlightAware Approximate
Fri 11:52:00 AM 40.0448 144.2130 238° Southwest  Level FlightAware Approximate
Fri 11:53:00 AM 39.9831 144.0870 237° Southwest  Level FlightAware Approximate
Fri 11:54:00 AM 39.9213 143.9613 237° Southwest  Level FlightAware Approximate
Fri 11:55:00 AM 39.8593 143.8358 237° Southwest  Level FlightAware Approximate
Fri 11:56:00 AM 39.7982 143.7098 238° Southwest  Level FlightAware Approximate
Fri 11:57:00 AM 39.7377 143.5834 238° Southwest  Level FlightAware Approximate
Fri 11:58:00 AM 39.6770 143.4573 238° Southwest  Level FlightAware Approximate
Fri 11:59:00 AM 39.6161 143.3313 238° Southwest  Level FlightAware Approximate
Fri 12:00:00 PM 39.5551 143.2056 238° Southwest  Level FlightAware Approximate
Fri 12:01:00 PM 39.4940 143.0801 238° Southwest  Level FlightAware Approximate
Fri 12:02:00 PM 39.4328 142.9549 238° Southwest  Level FlightAware Approximate
Fri 12:03:00 PM 39.3714 142.8298 238° Southwest  Level FlightAware Approximate
Fri 12:04:00 PM 39.3099 142.7050 238° Southwest  Level FlightAware Approximate
Fri 12:05:00 PM 39.2483 142.5804 237° Southwest  Level FlightAware Approximate
Fri 12:06:00 PM 39.1804 142.4618 230° Southwest  Level FlightAware Approximate
Fri 12:07:00 PM 39.1060 142.3495 230° Southwest  Level FlightAware Approximate
Fri 12:08:00 PM 39.0316 142.2375 229° Southwest  Level FlightAware Approximate
Fri 12:09:00 PM 38.9570 142.1258 229° Southwest  Level FlightAware Approximate
Fri 12:10:00 PM 38.8824 142.0143 229° Southwest  Level FlightAware Approximate
Fri 12:11:00 PM 38.8076 141.9030 229° Southwest  Level FlightAware Approximate
Fri 12:12:00 PM 38.7327 141.7919 229° Southwest  Level FlightAware Approximate
Fri 12:13:00 PM 38.6577 141.6811 229° Southwest  Level FlightAware Approximate
Fri 12:14:00 PM 38.5826 141.5705 229° Southwest  Level FlightAware Approximate
Fri 12:15:00 PM 38.5074 141.4601 229° Southwest  Level FlightAware Approximate
Fri 12:16:00 PM 38.4321 141.3500 229° Southwest  Level FlightAware Approximate
Fri 12:17:00 PM 38.3567 141.2401 229° Southwest  Level FlightAware Approximate
Fri 12:18:00 PM 38.2812 141.1304 229° Southwest  Level FlightAware Approximate
Fri 12:19:00 PM 38.2056 141.0210 229° Southwest  Level FlightAware Approximate
Fri 12:20:00 PM 38.1327 140.9102 262° West  Level FlightAware Approximate
Fri 12:21:00 PM 38.1176 140.7659 262° West  Level FlightAware Approximate
Fri 12:22:00 PM 38.1023 140.6217 262° West  Level FlightAware Approximate
Fri 12:23:00 PM 38.0864 140.4777 262° West  Level FlightAware Approximate
Fri 12:24:00 PM 38.0717 140.3335 263° West  Level FlightAware Approximate
Fri 12:25:00 PM 38.0580 140.1891 263° West  Level FlightAware Approximate
Fri 12:26:00 PM 38.0446 140.0448 263° West  Level FlightAware Approximate
Fri 12:27:00 PM 38.0310 139.9004 263° West  Level FlightAware Approximate
Fri 12:28:00 PM 38.0173 139.7562 263° West  Level FlightAware Approximate
Fri 12:29:00 PM 38.0028 139.6120 263° West  Level FlightAware Approximate
Fri 12:30:00 PM 37.9882 139.4680 263° West  Level FlightAware Approximate
Fri 12:31:00 PM 37.9734 139.3239 263° West  Level FlightAware Approximate
Fri 12:32:00 PM 37.9584 139.1800 263° West  Level FlightAware Approximate
Fri 12:33:00 PM 37.9201 139.0479 234° Southwest  Level FlightAware Approximate
Fri 12:34:00 PM 37.8526 138.9307 234° Southwest  Level FlightAware Approximate
Fri 12:35:00 PM 37.7851 138.8137 234° Southwest  Level FlightAware Approximate
Fri 12:36:00 PM 37.7174 138.6969 234° Southwest  Level FlightAware Approximate
Fri 12:37:00 PM 37.6497 138.5803 234° Southwest  Level FlightAware Approximate
Fri 12:38:00 PM 37.5818 138.4639 235° Southwest  Level FlightAware Approximate
Fri 12:39:00 PM 37.5155 138.3462 235° Southwest  Level FlightAware Approximate
Fri 12:40:00 PM 37.4491 138.2288 235° Southwest  Level FlightAware Approximate
Fri 12:41:00 PM 37.3825 138.1115 234° Southwest  Level FlightAware Approximate
Fri 12:42:00 PM 37.3158 137.9944 234° Southwest  Level FlightAware Approximate
Fri 12:43:00 PM 37.2475 137.8790 234° Southwest  Level FlightAware Approximate
Fri 12:44:00 PM 37.1807 137.7623 233° Southwest  Level FlightAware Approximate
Fri 12:45:00 PM 37.1111 137.6482 233° Southwest  Level FlightAware Approximate
Fri 12:46:00 PM 37.0415 137.5343 233° Southwest  Level FlightAware Approximate
Fri 12:47:00 PM 36.9747 137.4181 237° Southwest  Level FlightAware Approximate
Fri 12:48:00 PM 36.9120 137.2982 237° Southwest  Level FlightAware Approximate
Fri 12:49:00 PM 36.8492 137.1785 237° Southwest  Level FlightAware Approximate
Fri 12:50:00 PM 36.7830 137.0620 232° Southwest  Level FlightAware Approximate
Fri 12:51:00 PM 36.7131 136.9489 232° Southwest  Level FlightAware Approximate
Fri 12:52:00 PM 36.6431 136.8360 232° Southwest  Level FlightAware Approximate
Fri 12:53:00 PM 36.5739 136.7223 234° Southwest  Level FlightAware Approximate
Fri 12:54:00 PM 36.5062 136.6074 234° Southwest  Level FlightAware Approximate
Fri 12:55:00 PM 36.4384 136.4928 234° Southwest  Level FlightAware Approximate
Fri 12:56:00 PM 36.3771 136.3741 253° West  Level FlightAware Approximate
Fri 12:57:00 PM 36.3442 136.2380 253° West  Level FlightAware Approximate
Fri 12:58:00 PM 36.3111 136.1020 253° West  Level FlightAware Approximate
Fri 12:59:00 PM 36.2779 135.9660 253° West  Level FlightAware Approximate
Fri 01:00:00 PM 36.2445 135.8302 253° West  Level FlightAware Approximate
Fri 01:01:00 PM 36.2110 135.6946 253° West  Level FlightAware Approximate
Fri 01:02:00 PM 36.1773 135.5590 253° West  Level FlightAware Approximate
Fri 01:03:00 PM 36.1437 135.4234 253° West  Level FlightAware Approximate
Fri 01:04:00 PM 36.1099 135.2880 253° West  Level FlightAware Approximate
Fri 01:05:00 PM 36.0759 135.1528 253° West  Level FlightAware Approximate
Fri 01:06:00 PM 36.0420 135.0175 253° West  Level FlightAware Approximate
Fri 01:07:00 PM 36.0084 134.8822 253° West  Level FlightAware Approximate
Fri 01:08:00 PM 35.9746 134.7470 253° West  Level FlightAware Approximate
Fri 01:09:00 PM 35.9407 134.6119 253° West  Level FlightAware Approximate
Fri 01:10:00 PM 35.9059 134.4773 251° West  Level FlightAware Approximate
Fri 01:11:00 PM 35.8694 134.3434 251° West  Level FlightAware Approximate
Fri 01:12:00 PM 35.8327 134.2096 251° West  Level FlightAware Approximate
Fri 01:13:00 PM 35.7959 134.0759 251° West  Level FlightAware Approximate
Fri 01:14:00 PM 35.7589 133.9424 251° West  Level FlightAware Approximate
Fri 01:15:00 PM 35.7218 133.8089 251° West  Level FlightAware Approximate
Fri 01:16:00 PM 35.6845 133.6757 251° West  Level FlightAware Approximate
Fri 01:17:00 PM 35.6471 133.5425 251° West  Level FlightAware Approximate
Fri 01:18:00 PM 35.6095 133.4095 251° West  Level FlightAware Approximate
Fri 01:19:00 PM 35.5718 133.2766 251° West  Level FlightAware Approximate
Fri 01:20:00 PM 35.5340 133.1438 251° West  Level FlightAware Approximate
Fri 01:21:00 PM 35.4785 133.0227 232° Southwest  Level FlightAware Approximate
Fri 01:22:00 PM 35.4085 132.9116 232° Southwest  Level FlightAware Approximate
Fri 01:23:00 PM 35.3383 132.8007 232° Southwest  Level FlightAware Approximate
Fri 01:24:00 PM 35.2665 132.6914 231° Southwest  Level FlightAware Approximate
Fri 01:25:00 PM 35.1941 132.5829 231° Southwest  Level FlightAware Approximate
Fri 01:26:00 PM 35.1215 132.4746 231° Southwest  Level FlightAware Approximate
Fri 01:27:00 PM 35.0489 132.3665 231° Southwest  Level FlightAware Approximate
Fri 01:28:00 PM 34.9761 132.2586 231° Southwest  Level FlightAware Approximate
Fri 01:29:00 PM 34.9033 132.1509 231° Southwest  Level FlightAware Approximate
Fri 01:30:00 PM 34.8303 132.0434 230° Southwest  Level FlightAware Approximate
Fri 01:31:00 PM 34.7573 131.9360 230° Southwest  Level FlightAware Approximate
Fri 01:32:00 PM 34.6841 131.8289 230° Southwest  Level FlightAware Approximate
Fri 01:33:00 PM 34.6109 131.7219 230° Southwest  Level FlightAware Approximate
Fri 01:34:00 PM 34.5376 131.6151 230° Southwest  Level FlightAware Approximate
Fri 01:35:00 PM 34.4642 131.5086 230° Southwest  Level FlightAware Approximate
Fri 01:36:00 PM 34.3907 131.4022 230° Southwest  Level FlightAware Approximate
Fri 01:37:00 PM 34.3171 131.2960 230° Southwest  Level FlightAware Approximate
Fri 01:38:00 PM 34.2434 131.1899 230° Southwest  Level FlightAware Approximate
Fri 01:39:00 PM 34.1696 131.0841 230° Southwest  Level FlightAware Approximate
Fri 01:40:00 PM 34.0957 130.9785 230° Southwest  Level FlightAware Approximate
Fri 01:41:00 PM 34.0218 130.8730 230° Southwest  Level FlightAware Approximate
Fri 01:42:00 PM 33.9477 130.7677 230° Southwest  Level FlightAware Approximate
Fri 01:43:00 PM 33.8730 130.6632 229° Southwest  Level FlightAware Approximate
Fri 01:44:00 PM 33.7971 130.5600 229° Southwest  Level FlightAware Approximate
Fri 01:45:00 PM 33.7211 130.4570 228° Southwest  Level FlightAware Approximate
Fri 01:46:00 PM 33.6535 130.3477 246° West  Level FlightAware Approximate
Fri 01:47:00 PM 33.6071 130.2220 246° West  Level FlightAware Approximate
Fri 01:48:00 PM 33.5605 130.0965 246° West  Level FlightAware Approximate
Fri 01:49:00 PM 33.5138 129.9711 246° West  Level FlightAware Approximate
Fri 01:50:00 PM 33.4670 129.8458 246° West  Level FlightAware Approximate
Fri 01:51:00 PM 33.4200 129.7207 246° West  Level FlightAware Approximate
Fri 01:52:00 PM 33.3730 129.5957 246° West  Level FlightAware Approximate
Fri 01:53:00 PM 33.3258 129.4709 246° West  Level FlightAware Approximate
Fri 01:54:00 PM 33.2784 129.3462 246° West  Level FlightAware Approximate
Fri 01:55:00 PM 33.2310 129.2216 246° West  Level FlightAware Approximate
Fri 01:56:00 PM 33.1834 129.0972 245° Southwest  Level FlightAware Approximate
Fri 01:57:00 PM 33.1357 128.9729 245° Southwest  Level FlightAware Approximate
Fri 01:58:00 PM 33.0845 128.8534 248° West  Level FlightAware Approximate
Fri 01:59:00 PM 33.0381 128.7287 244° Southwest  Level FlightAware Approximate
Fri 02:00:00 PM 32.9886 128.6056 244° Southwest  Level FlightAware Approximate
Fri 02:01:00 PM 32.9390 128.4826 244° Southwest  Level FlightAware Approximate
Fri 02:02:00 PM 32.8892 128.3598 244° Southwest  Level FlightAware Approximate
Fri 02:03:00 PM 32.8394 128.2371 244° Southwest  Level FlightAware Approximate
Fri 02:04:00 PM 32.7894 128.1146 244° Southwest  Level FlightAware Approximate
Fri 02:05:00 PM 32.7393 127.9922 244° Southwest  Level FlightAware Approximate
Fri 02:06:00 PM 32.6891 127.8699 244° Southwest  Level FlightAware Approximate
Fri 02:07:00 PM 32.6388 127.7478 244° Southwest  Level FlightAware Approximate
Fri 02:08:00 PM 32.5883 127.6258 244° Southwest  Level FlightAware Approximate
Fri 02:09:00 PM 32.5398 127.5028 248° West  Level FlightAware Approximate
Fri 02:10:00 PM 32.4972 127.3768 243° Southwest  Level FlightAware Approximate
Fri 02:11:00 PM 32.4454 127.2558 243° Southwest  Level FlightAware Approximate
Fri 02:12:00 PM 32.3935 127.1350 243° Southwest  Level FlightAware Approximate
Fri 02:13:00 PM 32.3414 127.0143 243° Southwest  Level FlightAware Approximate
Fri 02:14:00 PM 32.2893 126.8937 243° Southwest  Level FlightAware Approximate
Fri 02:15:00 PM 32.2370 126.7732 243° Southwest  Level FlightAware Approximate
Fri 02:16:00 PM 32.1846 126.6529 243° Southwest  Level FlightAware Approximate
Fri 02:17:00 PM 32.1552 126.5223 255° West  Level FlightAware Approximate
Fri 02:18:00 PM 32.1263 126.3915 255° West  Level FlightAware Approximate
Fri 02:19:00 PM 32.0972 126.2608 255° West  Level FlightAware Approximate
Fri 02:20:00 PM 32.0680 126.1302 255° West  Level FlightAware Approximate
Fri 02:21:00 PM 32.0392 125.9995 256° West  Level FlightAware Approximate
Fri 02:22:00 PM 32.0110 125.8686 256° West  Level FlightAware Approximate
Fri 02:23:00 PM 31.9827 125.7378 256° West  Level FlightAware Approximate
Fri 02:24:00 PM 31.9543 125.6071 256° West  Level FlightAware Approximate
Fri 02:25:00 PM 31.9258 125.4764 256° West  Level FlightAware Approximate
Fri 02:26:00 PM 31.8971 125.3459 256° West  Level FlightAware Approximate
Fri 02:27:00 PM 31.8683 125.2154 255° West  Level FlightAware Approximate
Fri 02:28:00 PM 31.8393 125.0850 255° West  Level FlightAware Approximate
Fri 02:29:00 PM 31.8106 124.9546 256° West  Level FlightAware Approximate
Fri 02:30:00 PM 31.7831 124.8238 256° West  Level FlightAware Approximate
Fri 02:31:00 PM 31.7554 124.6932 256° West  Level FlightAware Approximate
Fri 02:32:00 PM 31.7277 124.5626 256° West  Level FlightAware Approximate
Fri 02:33:00 PM 31.6997 124.4321 255° West  Level FlightAware Approximate
Fri 02:34:00 PM 31.6708 124.3019 255° West  Level FlightAware Approximate
Fri 02:35:00 PM 31.6428 124.1715 256° West  Level FlightAware Approximate
Fri 02:36:00 PM 31.6145 124.0413 254° West  Level FlightAware Approximate
Fri 02:37:00 PM 31.5856 123.9113 257° West  Level FlightAware Approximate
Fri 02:38:00 PM 31.5649 123.7805 253° West  Level FlightAware Approximate
Fri 02:39:00 PM 31.5307 123.6523 253° West  Level FlightAware Approximate
Fri 02:40:00 PM 31.5037 123.5220 259° West  Level FlightAware Approximate
Fri 02:41:00 PM 31.4796 123.3908 258° West  Level FlightAware Approximate
Fri 02:42:00 PM 31.4550 123.2597 258° West  Level FlightAware Approximate
Fri 02:43:00 PM 31.4279 123.1294 256° West  Level FlightAware Approximate
Fri 02:44:00 PM 31.4001 122.9992 256° West  Level FlightAware Approximate
Fri 02:45:00 PM 31.3721 122.8692 256° West  Level FlightAware Approximate
Fri 02:46:00 PM 31.3445 122.7391 257° West  Level FlightAware Approximate
Fri 02:47:00 PM 31.3197 122.6083 258° West  Level FlightAware Approximate
Fri 02:48:00 PM 31.2941 122.4778 253° West  Level FlightAware Approximate
Fri 02:49:00 PM 31.2600 122.3499 253° West  Level FlightAware Approximate
Fri 02:50:00 PM 31.2281 122.2214 258° West  Level FlightAware Approximate
Fri 02:51:00 PM 31.2043 122.0905 258° West  Level FlightAware Approximate
Fri 02:52:00 PM 31.1809 121.9606 245° Southwest  Level FlightAware Approximate
Fri 02:53:00 PM 31.1421 121.8358 259° West  Level FlightAware Approximate
Fri 02:54:00 PM 31.1428 121.7924 259° West  Level Estimated
Fri 02:55:00 PM 31.1428 121.7924 259° West  Level Estimated
Fri 02:56:00 PM 31.1428 121.7924 259° West  Level Estimated
Fri 02:57:00 PM 31.1428 121.7924 259° West  Level Estimated
Fri 02:58:00 PM 31.1428 121.7924 259° West  Level Estimated
Fri 02:59:00 PM 31.1428 121.7924 259° West  Level Estimated
Fri 03:00:00 PM 31.1428 121.7924 259° West  Level Estimated
Fri 03:01:00 PM 31.1428 121.7924 259° West  Level Estimated
Fri 03:02:00 PM 31.1428 121.7924 259° West  Level Estimated
Fri 03:03:00 PM 31.1428 121.7924 259° West  Level Estimated
Fri 03:04:00 PM 31.1428 121.7924 259° West  Level Estimated
Fri 03:05:00 PM 31.1428 121.7924 259° West  Level Estimated
Fri 03:06:00 PM 31.1428 121.7924 259° West  Level Estimated
Fri 03:07:00 PM 31.1428 121.7924 259° West  Level Estimated
Fri 03:08:00 PM 31.1428 121.7924 259° West  Level Estimated
Fri 03:09:00 PM 31.1428 121.7924 259° West  Level Estimated
Fri 03:10:00 PM 31.1428 121.7924 259° West  Level Estimated
Fri 03:11:00 PM 31.1428 121.7924 259° West  Level Estimated
Fri 03:12:00 PM 31.1428 121.7924 259° West  Level Estimated
Fri 03:13:00 PM 31.1428 121.7924 259° West  Level Estimated
Fri 03:14:00 PM 31.1428 121.7924 259° West  Level Estimated
Fri 03:15:00 PM 31.1428 121.7924 259° West  Level Estimated
Fri 03:16:00 PM 31.1428 121.7924 259° West  Level Estimated
Fri 03:17:00 PM 31.1428 121.7924 259° West  Level Estimated
Fri 03:18:00 PM 31.1428 121.7924 259° West  Level Estimated
Fri 03:19:00 PM 31.1428 121.7924 259° West  Level Estimated
Fri 03:20:00 PM 31.1428 121.7924 259° West  Level Estimated
Fri 03:21:00 PM 31.1428 121.7924 259° West  Level Estimated
Fri 03:22:00 PM 31.1428 121.7924 259° West  Level Estimated
Fri 03:23:00 PM 31.1428 121.7924 259° West  Level Estimated
Fri 03:24:00 PM 31.1428 121.7924 259° West  Level Estimated
Fri 03:25:00 PM 31.1428 121.7924 259° West  Level Estimated
Fri 03:26:00 PM 31.1428 121.7924 259° West  Level Estimated
Fri 03:27:00 PM 31.1428 121.7924 259° West  Level Estimated
Fri 03:28:00 PM 31.1428 121.7924 259° West  Level Estimated
Fri 03:29:00 PM 31.1428 121.7924 259° West  Level Estimated
Fri 03:30:00 PM 31.1428 121.7924 259° West  Level Estimated
Fri 03:31:00 PM 31.1428 121.7924 259° West  Level Estimated

Login

Don't have an account? Register now (free) for customized features, flight alerts, and more!